Time;durP1;ratioP1;P1;durP2;ratioP2;P2;SDS_P1;SDS_P2;PMS_P1;PMS_P2;Temp;Humidity;BMP_temperature;BMP_pressure;BME280_temperature;BME280_humidity;BME280_pressure;Samples;Min_cycle;Max_cycle;Signal;HPM_P1;HPM_P2
2022/02/18 00:01:07;;;;;;;0.60;0.50;;;7.00;99.90;;;;;;5094083;28;20669;-79
2022/02/18 00:03:34;;;;;;;1.50;0.88;;;7.00;99.90;;;;;;5095506;28;20189;-77
2022/02/18 00:06:01;;;;;;;0.50;0.50;;;6.90;99.90;;;;;;5095226;28;20207;-79
2022/02/18 00:08:27;;;;;;;0.50;0.40;;;6.90;99.90;;;;;;5095077;28;20212;-78
2022/02/18 00:10:54;;;;;;;0.60;0.60;;;6.90;99.90;;;;;;5094692;28;20226;-79
2022/02/18 00:13:21;;;;;;;1.13;1.13;;;6.90;99.90;;;;;;5093855;28;20226;-78
2022/02/18 00:15:48;;;;;;;4.63;3.40;;;6.90;99.90;;;;;;5093426;28;20197;-78
2022/02/18 00:18:16;;;;;;;0.60;0.60;;;6.90;99.90;;;;;;5093973;28;20220;-78
2022/02/18 00:20:42;;;;;;;0.50;0.40;;;6.90;99.90;;;;;;5093536;28;20193;-78
2022/02/18 00:23:10;;;;;;;0.98;0.80;;;6.80;99.90;;;;;;5094706;28;20200;-78
2022/02/18 00:25:38;;;;;;;0.50;0.40;;;6.80;99.90;;;;;;5093951;28;20193;-80
2022/02/18 00:28:05;;;;;;;0.50;0.40;;;6.80;99.90;;;;;;5094264;28;20217;-80
2022/02/18 00:30:33;;;;;;;3.63;2.42;;;6.80;99.90;;;;;;5095133;28;20198;-80
2022/02/18 00:33:00;;;;;;;0.98;0.88;;;6.80;99.90;;;;;;5094390;28;20723;-80
2022/02/18 00:35:28;;;;;;;0.80;0.70;;;6.80;99.90;;;;;;5093592;28;20571;-80
2022/02/18 00:37:55;;;;;;;1.42;1.20;;;6.80;99.90;;;;;;5095620;28;20210;-77
2022/02/18 00:40:23;;;;;;;2.60;2.15;;;6.80;99.90;;;;;;5095439;28;20290;-80
2022/02/18 00:42:50;;;;;;;9.23;1.33;;;6.80;99.90;;;;;;5095042;28;20199;-80
2022/02/18 00:45:16;;;;;;;2.55;1.48;;;6.80;99.90;;;;;;5095001;28;20201;-79
2022/02/18 00:47:43;;;;;;;0.70;0.70;;;6.80;99.90;;;;;;5095128;28;20221;-79
2022/02/18 00:50:10;;;;;;;28.98;2.05;;;6.80;99.90;;;;;;5094897;28;20209;-80
2022/02/18 00:52:39;;;;;;;0.50;0.40;;;6.80;99.90;;;;;;5094422;28;20748;-80
2022/02/18 00:55:07;;;;;;;0.88;0.88;;;6.80;99.90;;;;;;5094984;28;20191;-76
2022/02/18 00:57:34;;;;;;;10.50;2.72;;;6.80;99.90;;;;;;5094845;28;20589;-80
2022/02/18 01:00:00;;;;;;;1.48;1.48;;;6.80;99.90;;;;;;5094438;28;20197;-78
2022/02/18 01:02:27;;;;;;;0.50;0.40;;;6.80;99.90;;;;;;5095118;28;20195;-80
2022/02/18 01:04:54;;;;;;;2.50;1.40;;;6.80;99.90;;;;;;5093703;28;20199;-79
2022/02/18 01:07:23;;;;;;;0.98;0.98;;;6.80;99.90;;;;;;5094050;28;20228;-79
2022/02/18 01:09:52;;;;;;;0.70;0.50;;;6.80;99.90;;;;;;5093751;28;20197;-80
2022/02/18 01:12:19;;;;;;;0.50;0.50;;;6.90;99.90;;;;;;5093836;28;20718;-79
2022/02/18 01:14:46;;;;;;;0.88;0.88;;;6.90;99.90;;;;;;5093785;28;20238;-80
2022/02/18 01:17:13;;;;;;;0.50;0.40;;;6.90;99.90;;;;;;5093671;28;20193;-80
2022/02/18 01:19:40;;;;;;;2.88;1.75;;;6.90;99.90;;;;;;5093126;28;20202;-79
2022/02/18 01:22:07;;;;;;;0.50;0.50;;;6.90;99.90;;;;;;5093650;28;20250;-79
2022/02/18 01:24:34;;;;;;;0.73;0.45;;;6.90;99.90;;;;;;5094117;28;20187;-79
2022/02/18 01:27:02;;;;;;;0.50;0.40;;;6.90;99.90;;;;;;5093841;28;20205;-80
2022/02/18 01:29:29;;;;;;;0.50;0.40;;;6.90;99.90;;;;;;5093016;28;20202;-80
2022/02/18 01:31:55;;;;;;;0.52;0.52;;;6.90;99.90;;;;;;5093233;28;20601;-80
2022/02/18 01:34:22;;;;;;;0.50;0.40;;;7.00;99.90;;;;;;5094378;28;20617;-79
2022/02/18 01:36:49;;;;;;;1.27;1.25;;;7.00;99.90;;;;;;5093578;28;20236;-80
2022/02/18 01:39:18;;;;;;;0.50;0.50;;;7.00;99.90;;;;;;5093052;28;20215;-80
2022/02/18 01:41:44;;;;;;;0.50;0.50;;;7.00;99.90;;;;;;5093053;28;20290;-79
2022/02/18 01:44:31;;;;;;;0.50;0.40;;;7.00;99.90;;;;;;5093258;28;20260;-79
2022/02/18 01:46:58;;;;;;;2.60;2.50;;;7.00;99.90;;;;;;5093633;28;20180;-79
2022/02/18 01:49:24;;;;;;;0.60;0.60;;;7.00;99.90;;;;;;5093356;28;20209;-80
2022/02/18 01:51:51;;;;;;;1.05;0.95;;;7.00;99.90;;;;;;5093044;28;20256;-79
2022/02/18 01:54:18;;;;;;;0.60;0.60;;;7.00;99.90;;;;;;5092901;28;20216;-79
2022/02/18 01:56:45;;;;;;;1.50;0.50;;;7.00;99.90;;;;;;5093285;28;20198;-79
2022/02/18 01:59:13;;;;;;;0.50;0.40;;;7.00;99.90;;;;;;5093314;28;20263;-79
2022/02/18 02:01:39;;;;;;;0.50;0.40;;;7.10;99.90;;;;;;5092966;28;20239;-80
2022/02/18 02:04:07;;;;;;;0.50;0.50;;;7.10;99.90;;;;;;5093438;28;20189;-77
2022/02/18 02:06:34;;;;;;;6.82;0.95;;;7.10;99.90;;;;;;5093709;28;20195;-79
2022/02/18 02:09:01;;;;;;;0.80;0.70;;;7.10;99.90;;;;;;5092515;28;20218;-80
2022/02/18 02:11:28;;;;;;;3.40;0.85;;;7.10;99.90;;;;;;5093909;28;20206;-80
2022/02/18 02:13:55;;;;;;;0.50;0.40;;;7.10;99.90;;;;;;5093486;28;20214;-79
2022/02/18 02:16:23;;;;;;;0.50;0.40;;;7.00;99.90;;;;;;5093698;28;20201;-80
2022/02/18 02:18:49;;;;;;;0.95;0.95;;;7.10;99.90;;;;;;5093550;28;20223;-79
2022/02/18 02:21:16;;;;;;;1.70;1.60;;;7.10;99.90;;;;;;5092551;28;20520;-79
2022/02/18 02:23:44;;;;;;;0.50;0.40;;;7.10;99.90;;;;;;5091953;28;20657;-79
2022/02/18 02:26:12;;;;;;;1.25;1.25;;;7.10;99.90;;;;;;5092510;28;20199;-78
2022/02/18 02:28:38;;;;;;;0.50;0.40;;;7.10;99.90;;;;;;5091831;28;20278;-78
2022/02/18 02:31:06;;;;;;;0.50;0.50;;;7.10;99.90;;;;;;5092221;28;20191;-78
2022/02/18 02:33:33;;;;;;;0.50;0.40;;;7.10;99.90;;;;;;5092155;28;20760;-78
2022/02/18 02:36:00;;;;;;;0.50;0.50;;;7.10;99.90;;;;;;5096473;28;20602;-78
2022/02/18 02:38:27;;;;;;;1.05;0.90;;;7.10;99.90;;;;;;5094146;28;20214;-77
2022/02/18 02:40:55;;;;;;;2.78;1.33;;;7.10;99.90;;;;;;5091473;28;20202;-78
2022/02/18 02:43:22;;;;;;;0.57;0.52;;;7.10;99.90;;;;;;5092177;28;20202;-79
2022/02/18 02:45:49;;;;;;;1.58;0.57;;;7.10;99.90;;;;;;5092021;28;20233;-78
2022/02/18 02:48:16;;;;;;;0.60;0.40;;;7.10;99.90;;;;;;5091416;28;20279;-78
2022/02/18 02:50:42;;;;;;;0.50;0.40;;;7.10;99.90;;;;;;5091358;28;20204;-78
2022/02/18 02:53:09;;;;;;;0.50;0.45;;;7.10;99.90;;;;;;5091524;28;20224;-79
2022/02/18 02:55:36;;;;;;;0.50;0.40;;;7.10;99.90;;;;;;5092115;28;20194;-78
2022/02/18 02:58:04;;;;;;;0.50;0.40;;;7.10;99.90;;;;;;5094183;28;20213;-78
2022/02/18 03:00:31;;;;;;;0.50;0.40;;;7.10;99.90;;;;;;5095267;28;20734;-78
2022/02/18 03:02:58;;;;;;;1.48;0.60;;;7.10;99.90;;;;;;5095203;28;20291;-78
2022/02/18 03:05:25;;;;;;;4.13;0.82;;;7.10;99.90;;;;;;5095747;28;20234;-79
2022/02/18 03:07:52;;;;;;;0.82;0.82;;;7.00;99.90;;;;;;5095307;28;20227;-78
2022/02/18 03:10:19;;;;;;;0.50;0.40;;;7.00;99.90;;;;;;5095925;28;20196;-78
2022/02/18 03:12:45;;;;;;;0.50;0.40;;;7.00;99.90;;;;;;5095501;28;20196;-78
2022/02/18 03:15:13;;;;;;;0.57;0.45;;;7.00;99.90;;;;;;5096672;28;20248;-78
2022/02/18 03:17:40;;;;;;;0.50;0.40;;;7.00;99.90;;;;;;5096918;28;20226;-80
2022/02/18 03:20:08;;;;;;;0.50;0.40;;;7.00;99.90;;;;;;5096689;28;20225;-80
2022/02/18 03:22:35;;;;;;;1.80;1.25;;;7.00;99.90;;;;;;5096576;28;20191;-79
2022/02/18 03:25:02;;;;;;;24.40;1.50;;;7.00;99.90;;;;;;5099286;28;20189;-78
2022/02/18 03:27:29;;;;;;;1.25;0.68;;;7.00;99.90;;;;;;5095190;28;20213;-79
2022/02/18 03:29:56;;;;;;;0.50;0.40;;;7.10;99.90;;;;;;5095747;28;20196;-79
2022/02/18 03:32:24;;;;;;;0.50;0.40;;;7.10;99.90;;;;;;5096950;28;20244;-79
2022/02/18 03:34:51;;;;;;;0.50;0.40;;;7.10;99.90;;;;;;5095423;28;20213;-78
2022/02/18 03:37:17;;;;;;;0.95;0.95;;;7.10;99.90;;;;;;5095730;28;20264;-79
2022/02/18 03:39:44;;;;;;;0.50;0.40;;;7.10;99.90;;;;;;5094882;28;20621;-79
2022/02/18 03:42:11;;;;;;;0.50;0.40;;;7.10;99.90;;;;;;5095557;28;20196;-79
2022/02/18 03:44:37;;;;;;;1.02;1.02;;;7.10;99.90;;;;;;5095486;28;20589;-80
2022/02/18 03:47:05;;;;;;;0.50;0.50;;;7.20;99.90;;;;;;5095659;28;20206;-80
2022/02/18 03:49:33;;;;;;;0.60;0.60;;;7.20;99.90;;;;;;5095769;28;20197;-79
2022/02/18 03:52:00;;;;;;;0.50;0.40;;;7.20;99.90;;;;;;5095236;28;20227;-79
2022/02/18 03:54:26;;;;;;;0.50;0.40;;;7.20;99.90;;;;;;5095665;28;20520;-79
2022/02/18 03:56:53;;;;;;;0.50;0.40;;;7.20;99.90;;;;;;5095665;28;20216;-79
2022/02/18 03:59:21;;;;;;;0.50;0.40;;;7.20;99.90;;;;;;5095295;28;20202;-79
2022/02/18 04:01:48;;;;;;;2.72;2.55;;;7.20;99.90;;;;;;5094754;28;20278;-80
2022/02/18 04:04:14;;;;;;;0.50;0.40;;;7.20;99.90;;;;;;5095253;28;20193;-80
2022/02/18 04:06:42;;;;;;;1.25;0.50;;;7.30;99.90;;;;;;5095218;28;20204;-79
2022/02/18 04:09:09;;;;;;;0.50;0.40;;;7.30;99.90;;;;;;5094680;28;20578;-80
2022/02/18 04:11:36;;;;;;;1.88;1.75;;;7.30;99.90;;;;;;5095395;28;20195;-79
2022/02/18 04:14:02;;;;;;;1.63;1.30;;;7.30;99.90;;;;;;5094968;28;20589;-79
2022/02/18 04:16:29;;;;;;;0.77;0.77;;;7.30;99.90;;;;;;5095298;28;20194;-79
2022/02/18 04:18:57;;;;;;;0.50;0.40;;;7.30;99.90;;;;;;5094701;28;20225;-79
2022/02/18 04:21:24;;;;;;;18.88;1.15;;;7.30;99.90;;;;;;5094816;28;20209;-80
2022/02/18 04:23:52;;;;;;;0.63;0.55;;;7.20;99.90;;;;;;5095314;28;20667;-80
2022/02/18 04:26:19;;;;;;;0.70;0.68;;;7.30;99.90;;;;;;5095603;28;20204;-80
2022/02/18 04:28:45;;;;;;;2.38;1.23;;;7.30;99.90;;;;;;5093912;28;20313;-80
2022/02/18 04:31:12;;;;;;;0.50;0.40;;;7.30;99.90;;;;;;5095932;28;20672;-79
2022/02/18 04:33:39;;;;;;;0.50;0.40;;;7.30;99.90;;;;;;5094959;28;20215;-81
2022/02/18 04:36:05;;;;;;;0.50;0.40;;;7.30;99.90;;;;;;5095528;28;20193;-79
2022/02/18 04:38:32;;;;;;;0.50;0.40;;;7.30;99.90;;;;;;5093977;28;20217;-78
2022/02/18 04:41:00;;;;;;;1.92;0.50;;;7.30;99.90;;;;;;5094105;28;20201;-80
2022/02/18 04:43:27;;;;;;;0.88;0.88;;;7.30;99.90;;;;;;5095523;28;20250;-79
2022/02/18 04:45:54;;;;;;;3.53;1.30;;;7.30;99.90;;;;;;5094017;28;20196;-79
2022/02/18 04:48:21;;;;;;;0.50;0.40;;;7.30;99.90;;;;;;5094299;28;20224;-79
2022/02/18 04:50:47;;;;;;;1.13;1.02;;;7.20;99.90;;;;;;5093537;28;20266;-77
2022/02/18 04:53:14;;;;;;;0.50;0.40;;;7.30;99.90;;;;;;5094304;28;20202;-80
2022/02/18 04:55:42;;;;;;;13.95;0.80;;;7.30;99.90;;;;;;5094608;28;20612;-80
2022/02/18 04:58:10;;;;;;;0.50;0.40;;;7.20;99.90;;;;;;5094991;28;20227;-80
2022/02/18 05:00:37;;;;;;;0.50;0.40;;;7.20;99.90;;;;;;5094376;28;20552;-79
2022/02/18 05:03:04;;;;;;;0.50;0.40;;;7.30;99.90;;;;;;5095417;28;20536;-79
2022/02/18 05:05:30;;;;;;;0.50;0.40;;;7.30;99.90;;;;;;5094253;28;20625;-79
2022/02/18 05:07:57;;;;;;;2.08;1.90;;;7.30;99.90;;;;;;5094117;28;20221;-78
2022/02/18 05:10:24;;;;;;;0.80;0.50;;;7.30;99.90;;;;;;5093800;28;20203;-79
2022/02/18 05:12:50;;;;;;;0.50;0.40;;;7.30;99.90;;;;;;5093527;28;20202;-78
2022/02/18 05:15:19;;;;;;;0.50;0.40;;;7.40;99.90;;;;;;5093500;28;20686;-80
2022/02/18 05:17:48;;;;;;;0.50;0.40;;;7.30;99.90;;;;;;5094778;28;20211;-79
2022/02/18 05:20:15;;;;;;;0.50;0.40;;;7.40;99.90;;;;;;5093710;28;20205;-78
2022/02/18 05:22:42;;;;;;;0.50;0.40;;;7.40;99.90;;;;;;5094191;28;20196;-79
2022/02/18 05:25:09;;;;;;;1.08;0.82;;;7.40;99.90;;;;;;5094227;28;20732;-78
2022/02/18 05:27:36;;;;;;;0.50;0.45;;;7.40;99.90;;;;;;5093543;28;20217;-80
2022/02/18 05:30:02;;;;;;;1.45;0.60;;;7.50;99.90;;;;;;5095052;28;20190;-80
2022/02/18 05:32:30;;;;;;;0.50;0.40;;;7.50;99.90;;;;;;5095835;28;20196;-80
2022/02/18 05:34:57;;;;;;;0.50;0.40;;;7.50;99.90;;;;;;5094905;28;20209;-81
2022/02/18 05:37:24;;;;;;;0.50;0.40;;;7.60;99.90;;;;;;5095144;28;20220;-80
2022/02/18 05:39:50;;;;;;;0.50;0.40;;;7.60;99.90;;;;;;5094675;28;20223;-80
2022/02/18 05:42:17;;;;;;;4.90;1.25;;;7.60;99.90;;;;;;5095510;28;20228;-78
2022/02/18 05:44:44;;;;;;;0.60;0.50;;;7.60;99.90;;;;;;5094756;28;20191;-79
2022/02/18 05:47:10;;;;;;;0.50;0.40;;;7.60;99.90;;;;;;5093874;28;20199;-77
2022/02/18 05:49:39;;;;;;;1.95;0.80;;;7.60;99.90;;;;;;5094172;28;20259;-80
2022/02/18 05:52:06;;;;;;;0.98;0.60;;;7.60;99.90;;;;;;5095768;28;20203;-78
2022/02/18 05:54:33;;;;;;;0.70;0.70;;;7.60;99.90;;;;;;5094752;28;20609;-80
2022/02/18 05:57:00;;;;;;;0.50;0.50;;;7.60;99.90;;;;;;5095257;28;20249;-79
2022/02/18 05:59:27;;;;;;;0.50;0.40;;;7.60;99.90;;;;;;5095166;28;20668;-79
2022/02/18 06:01:53;;;;;;;0.50;0.40;;;7.60;99.90;;;;;;5095632;28;20202;-78
2022/02/18 06:04:20;;;;;;;1.90;0.70;;;7.60;99.90;;;;;;5095216;28;20188;-78
2022/02/18 06:06:48;;;;;;;0.50;0.40;;;7.60;99.90;;;;;;5094565;28;20221;-78
2022/02/18 06:09:15;;;;;;;0.50;0.50;;;7.60;99.90;;;;;;5093689;28;20317;-80
2022/02/18 06:11:41;;;;;;;8.57;0.70;;;7.70;99.90;;;;;;5098273;28;20196;-79
2022/02/18 06:14:09;;;;;;;0.52;0.45;;;7.70;99.90;;;;;;5098069;28;20212;-76
2022/02/18 06:16:35;;;;;;;0.82;0.82;;;7.70;99.90;;;;;;5096613;28;20203;-80
2022/02/18 06:19:03;;;;;;;0.50;0.40;;;7.70;99.90;;;;;;5097206;28;20230;-79
2022/02/18 06:21:31;;;;;;;0.55;0.52;;;7.60;99.90;;;;;;5111099;28;20199;-81
2022/02/18 06:23:59;;;;;;;9.93;2.03;;;7.50;99.90;;;;;;5112730;28;20191;-80
2022/02/18 06:26:26;;;;;;;0.50;0.40;;;7.40;99.90;;;;;;5106744;28;20193;-80
2022/02/18 06:28:52;;;;;;;1.05;0.98;;;7.30;99.90;;;;;;5106983;28;20220;-79
2022/02/18 06:31:19;;;;;;;1.13;1.13;;;7.20;99.90;;;;;;5106937;28;20190;-79
2022/02/18 06:33:46;;;;;;;0.70;0.50;;;7.20;99.90;;;;;;5115923;28;20288;-81
2022/02/18 06:36:13;;;;;;;1.65;1.45;;;7.20;99.90;;;;;;5118788;28;20200;-79
2022/02/18 06:38:42;;;;;;;1.13;0.80;;;7.20;99.90;;;;;;5120133;28;20200;-81
2022/02/18 06:41:11;;;;;;;0.95;0.95;;;7.20;99.90;;;;;;5118090;28;20221;-81
2022/02/18 06:43:38;;;;;;;3.60;0.68;;;7.20;99.90;;;;;;5116979;28;20196;-82
2022/02/18 06:46:04;;;;;;;0.50;0.40;;;7.20;99.90;;;;;;5107242;28;20660;-78
2022/02/18 06:48:31;;;;;;;7.82;2.88;;;7.20;99.90;;;;;;5100259;28;20216;-79
2022/02/18 06:50:58;;;;;;;1.70;1.08;;;7.20;99.90;;;;;;5101714;28;20205;-78
2022/02/18 06:53:25;;;;;;;0.50;0.40;;;7.20;99.90;;;;;;5102358;28;20212;-80
2022/02/18 06:55:52;;;;;;;0.90;0.50;;;7.20;99.90;;;;;;5099688;28;20209;-77
2022/02/18 06:58:20;;;;;;;0.60;0.60;;;7.20;99.90;;;;;;5098419;28;20227;-77
2022/02/18 07:00:48;;;;;;;0.73;0.70;;;7.20;99.90;;;;;;5095496;28;20194;-78
2022/02/18 07:03:14;;;;;;;0.60;0.50;;;7.10;99.90;;;;;;5096973;28;20554;-79
2022/02/18 07:05:41;;;;;;;1.50;1.10;;;7.10;99.90;;;;;;5096817;28;20563;-79
2022/02/18 07:08:08;;;;;;;3.33;1.42;;;7.10;99.90;;;;;;5096915;28;20210;-79
2022/02/18 07:10:36;;;;;;;0.50;0.40;;;7.10;99.90;;;;;;5096733;28;20814;-79
2022/02/18 07:13:02;;;;;;;0.50;0.40;;;7.00;99.90;;;;;;5097098;28;20263;-78
2022/02/18 07:15:31;;;;;;;1.40;1.05;;;6.90;99.90;;;;;;5100106;28;20217;-80
2022/02/18 07:17:59;;;;;;;0.50;0.40;;;6.90;99.90;;;;;;5097588;28;20213;-79
2022/02/18 07:20:26;;;;;;;2.05;0.60;;;6.90;99.90;;;;;;5097038;28;20235;-79
2022/02/18 07:22:53;;;;;;;0.50;0.40;;;6.90;99.90;;;;;;5098733;28;20198;-80
2022/02/18 07:25:20;;;;;;;0.50;0.50;;;6.90;99.90;;;;;;5103689;28;20186;-79
2022/02/18 07:27:47;;;;;;;0.50;0.40;;;6.90;99.90;;;;;;5104266;28;20214;-80
2022/02/18 07:30:15;;;;;;;0.50;0.40;;;6.90;99.90;;;;;;5110355;28;20207;-80
2022/02/18 07:32:44;;;;;;;0.50;0.40;;;6.90;99.90;;;;;;5112429;28;20231;-80
2022/02/18 07:35:11;;;;;;;0.60;0.50;;;6.90;99.90;;;;;;5111820;28;20244;-78
2022/02/18 07:37:37;;;;;;;1.17;0.73;;;6.90;99.90;;;;;;5118552;28;20217;-80
2022/02/18 07:40:05;;;;;;;1.95;0.75;;;6.90;99.90;;;;;;5125966;28;20195;-79
2022/02/18 07:42:32;;;;;;;0.50;0.40;;;6.90;99.90;;;;;;5120714;28;20596;-81
2022/02/18 07:44:58;;;;;;;4.00;2.97;;;6.90;99.90;;;;;;5117111;28;20196;-79
2022/02/18 07:47:25;;;;;;;0.60;0.60;;;6.90;99.90;;;;;;5116175;28;20217;-79
2022/02/18 07:49:53;;;;;;;4.03;2.05;;;7.00;99.90;;;;;;5112707;28;20568;-79
2022/02/18 07:52:21;;;;;;;0.70;0.70;;;7.00;99.90;;;;;;5095119;28;20201;-78
2022/02/18 07:54:48;;;;;;;7.18;1.30;;;7.00;99.90;;;;;;5095957;28;20306;-79
2022/02/18 07:57:14;;;;;;;0.55;0.55;;;7.00;99.90;;;;;;5097952;28;20190;-79
2022/02/18 07:59:41;;;;;;;0.60;0.60;;;7.10;99.90;;;;;;5096187;28;20195;-78
2022/02/18 08:02:08;;;;;;;5.30;2.58;;;7.10;99.90;;;;;;5095890;28;20197;-80
2022/02/18 08:04:35;;;;;;;32.60;2.28;;;7.20;99.90;;;;;;5097445;28;20198;-79
2022/02/18 08:07:03;;;;;;;1.35;0.88;;;7.20;99.90;;;;;;5098173;28;20193;-79
2022/02/18 08:09:30;;;;;;;1.52;1.40;;;7.20;99.90;;;;;;5100217;28;20217;-79
2022/02/18 08:11:56;;;;;;;0.50;0.50;;;7.20;99.90;;;;;;5096522;28;20284;-81
2022/02/18 08:14:23;;;;;;;11.18;1.45;;;7.30;99.90;;;;;;5096936;28;20343;-80
2022/02/18 08:16:50;;;;;;;3.72;1.40;;;7.40;99.90;;;;;;5097841;28;20199;-80
2022/02/18 08:19:20;;;;;;;4.97;0.77;;;7.40;99.90;;;;;;5095578;28;20245;-79
2022/02/18 08:21:47;;;;;;;0.50;0.50;;;7.50;99.90;;;;;;5095859;28;20194;-79
2022/02/18 08:24:17;;;;;;;0.50;0.47;;;7.50;99.90;;;;;;5095842;28;20199;-80
2022/02/18 08:26:45;;;;;;;2.15;2.05;;;7.60;99.90;;;;;;5095564;28;20193;-79
2022/02/18 08:29:11;;;;;;;0.88;0.88;;;7.60;99.90;;;;;;5095421;28;20694;-78
2022/02/18 08:31:38;;;;;;;0.50;0.40;;;7.60;99.90;;;;;;5095464;28;20205;-79
2022/02/18 08:34:05;;;;;;;20.83;2.80;;;7.70;99.90;;;;;;5095871;28;20193;-80
2022/02/18 08:36:33;;;;;;;0.50;0.40;;;7.70;99.90;;;;;;5099551;28;20232;-79
2022/02/18 08:39:00;;;;;;;0.80;0.60;;;7.80;99.90;;;;;;5109604;28;20219;-80
2022/02/18 08:41:28;;;;;;;10.95;1.80;;;7.80;99.90;;;;;;5115396;27;20206;-79
2022/02/18 08:43:57;;;;;;;4.93;1.45;;;7.80;99.90;;;;;;5114780;28;20200;-79
2022/02/18 08:46:24;;;;;;;2.25;2.15;;;7.90;99.90;;;;;;5116188;28;20188;-80
2022/02/18 08:48:51;;;;;;;0.90;0.60;;;7.90;99.90;;;;;;5109416;28;20217;-80
2022/02/18 08:51:18;;;;;;;0.70;0.70;;;7.90;99.90;;;;;;5093688;28;20200;-79
2022/02/18 08:53:45;;;;;;;1.25;0.93;;;7.90;99.90;;;;;;5094187;28;20205;-78
2022/02/18 08:56:11;;;;;;;1.20;1.20;;;7.90;99.90;;;;;;5093836;28;20220;-78
2022/02/18 08:58:40;;;;;;;2.35;0.70;;;8.00;99.90;;;;;;5094548;28;20556;-80
2022/02/18 09:01:07;;;;;;;0.65;0.50;;;8.00;99.90;;;;;;5094129;28;20199;-80
2022/02/18 09:03:33;;;;;;;1.58;0.93;;;8.00;99.90;;;;;;5094519;28;20193;-80
2022/02/18 09:06:00;;;;;;;0.50;0.40;;;8.00;99.90;;;;;;5094403;28;20195;-80
2022/02/18 09:08:27;;;;;;;2.22;0.77;;;8.00;99.90;;;;;;5094404;28;20233;-80
2022/02/18 09:10:54;;;;;;;6.65;2.78;;;8.00;99.90;;;;;;5094502;28;20258;-80
2022/02/18 09:13:21;;;;;;;0.50;0.40;;;8.00;99.90;;;;;;5094581;28;20201;-79
2022/02/18 09:15:50;;;;;;;0.80;0.68;;;8.10;99.90;;;;;;5094118;28;20212;-80
2022/02/18 09:18:17;;;;;;;5.78;1.92;;;8.10;99.90;;;;;;5098518;28;20223;-79
2022/02/18 09:20:44;;;;;;;0.65;0.63;;;8.10;99.90;;;;;;5094964;28;20202;-80
2022/02/18 09:23:11;;;;;;;0.80;0.80;;;8.10;99.90;;;;;;5094058;28;20192;-80
2022/02/18 09:25:38;;;;;;;1.15;0.98;;;8.10;99.90;;;;;;5094105;28;20665;-80
2022/02/18 09:28:05;;;;;;;11.75;1.45;;;8.20;99.90;;;;;;5094411;28;20221;-80
2022/02/18 09:30:32;;;;;;;0.40;0.40;;;8.20;99.90;;;;;;5094093;28;20206;-80
2022/02/18 09:33:00;;;;;;;1.23;1.13;;;8.20;99.90;;;;;;5094880;28;20265;-80
2022/02/18 09:35:27;;;;;;;1.63;1.40;;;8.30;99.90;;;;;;5094559;28;20199;-79
2022/02/18 09:37:54;;;;;;;13.93;0.70;;;8.30;99.90;;;;;;5094521;28;20212;-81
2022/02/18 09:40:21;;;;;;;0.50;0.32;;;8.40;99.90;;;;;;5094194;28;20197;-79
2022/02/18 09:42:49;;;;;;;0.52;0.50;;;8.40;99.90;;;;;;5094249;28;20203;-80
2022/02/18 09:45:18;;;;;;;1.95;1.48;;;8.50;99.90;;;;;;5094274;28;20203;-80
2022/02/18 09:47:48;;;;;;;1.67;1.23;;;8.50;99.90;;;;;;5095400;28;20214;-80
2022/02/18 09:50:16;;;;;;;0.50;0.50;;;8.50;99.90;;;;;;5095292;28;20198;-80
2022/02/18 09:52:43;;;;;;;1.08;1.02;;;8.50;99.90;;;;;;5094100;28;20192;-80
2022/02/18 09:55:10;;;;;;;1.50;0.88;;;8.50;99.90;;;;;;5097420;28;20196;-80
2022/02/18 09:57:38;;;;;;;0.70;0.60;;;8.60;99.90;;;;;;5094215;28;20219;-80
2022/02/18 10:00:06;;;;;;;3.30;1.35;;;8.60;99.90;;;;;;5093433;28;20198;-75
2022/02/18 10:02:35;;;;;;;0.40;0.40;;;8.60;99.90;;;;;;5093321;28;20204;-79
2022/02/18 10:05:02;;;;;;;0.47;0.45;;;8.60;99.90;;;;;;5093697;28;20199;-80
2022/02/18 10:07:31;;;;;;;0.47;0.47;;;8.70;99.90;;;;;;5097018;28;20210;-80
2022/02/18 10:09:58;;;;;;;0.65;0.65;;;8.70;99.90;;;;;;5096859;28;20199;-80
2022/02/18 10:12:35;;;;;;;2.65;0.95;;;8.70;99.90;;;;;;5097622;28;20283;-80
2022/02/18 10:15:09;;;;;;;0.70;0.70;;;8.70;99.90;;;;;;5098161;28;20271;-79
2022/02/18 10:17:41;;;;;;;1.08;0.95;;;8.80;99.90;;;;;;5097819;28;20219;-79
2022/02/18 10:20:17;;;;;;;0.50;0.40;;;8.90;99.90;;;;;;5098207;28;20200;-79
2022/02/18 10:22:57;;;;;;;1.77;0.82;;;8.90;99.90;;;;;;5101675;28;20286;-80
2022/02/18 10:25:25;;;;;;;0.50;0.43;;;9.00;99.90;;;;;;5110364;28;20259;-80
2022/02/18 10:27:52;;;;;;;0.50;0.40;;;9.00;99.90;;;;;;5118225;28;20251;-79
2022/02/18 10:30:22;;;;;;;0.60;0.50;;;9.10;99.90;;;;;;5117965;28;20198;-79
2022/02/18 10:32:50;;;;;;;0.50;0.40;;;9.10;99.90;;;;;;5118680;28;20762;-80
2022/02/18 10:35:19;;;;;;;0.50;0.50;;;9.20;99.90;;;;;;5118349;28;20615;-78
2022/02/18 10:37:48;;;;;;;0.43;0.30;;;9.30;99.90;;;;;;5104721;28;20217;-80
2022/02/18 10:40:18;;;;;;;0.55;0.52;;;9.40;99.90;;;;;;5095885;28;20207;-80
2022/02/18 10:42:46;;;;;;;9.23;0.95;;;9.50;99.90;;;;;;5097129;28;20203;-79
2022/02/18 10:45:14;;;;;;;0.55;0.50;;;9.60;99.90;;;;;;5096723;28;20200;-78
2022/02/18 10:47:43;;;;;;;0.50;0.40;;;9.60;99.90;;;;;;5096895;28;20563;-79
2022/02/18 10:50:18;;;;;;;0.65;0.50;;;9.70;99.90;;;;;;5095857;28;20208;-79
2022/02/18 10:53:11;;;;;;;0.50;0.30;;;9.70;99.90;;;;;;5096003;28;20668;-80
2022/02/18 10:55:53;;;;;;;0.50;0.30;;;9.80;99.90;;;;;;5098936;28;20216;-80
2022/02/18 10:58:22;;;;;;;0.57;0.57;;;9.90;99.90;;;;;;5098254;28;20228;-79
2022/02/18 11:01:02;;;;;;;0.80;0.73;;;9.90;99.90;;;;;;5099864;28;20349;-79
2022/02/18 11:03:30;;;;;;;0.50;0.40;;;9.90;99.90;;;;;;5097318;28;20192;-78
2022/02/18 11:06:13;;;;;;;0.60;0.60;;;10.00;99.90;;;;;;5098047;28;20246;-80
2022/02/18 11:08:47;;;;;;;0.60;0.60;;;10.00;99.90;;;;;;5097613;28;20702;-80
2022/02/18 11:11:16;;;;;;;0.57;0.55;;;10.10;99.90;;;;;;5096796;28;20200;-80
2022/02/18 11:13:44;;;;;;;0.50;0.30;;;10.20;99.90;;;;;;5097251;28;20203;-80
2022/02/18 11:16:12;;;;;;;0.50;0.40;;;10.20;99.90;;;;;;5096459;28;20209;-79
2022/02/18 11:18:39;;;;;;;0.50;0.40;;;10.30;99.90;;;;;;5096283;28;20274;-80
2022/02/18 11:21:06;;;;;;;0.50;0.30;;;10.30;99.90;;;;;;5096149;28;20236;-75
2022/02/18 11:23:34;;;;;;;0.50;0.30;;;10.30;99.90;;;;;;5095935;28;20196;-79
2022/02/18 11:26:01;;;;;;;2.17;0.98;;;10.40;99.90;;;;;;5095879;28;20190;-79
2022/02/18 11:28:30;;;;;;;1.90;1.80;;;10.50;99.90;;;;;;5095426;28;20230;-80
2022/02/18 11:30:59;;;;;;;9.95;0.60;;;10.50;99.90;;;;;;5095339;28;20200;-78
2022/02/18 11:33:42;;;;;;;0.80;0.60;;;10.50;99.90;;;;;;5096995;28;20204;-79
2022/02/18 11:36:24;;;;;;;0.50;0.30;;;10.60;99.90;;;;;;5095574;28;20217;-79
2022/02/18 11:39:09;;;;;;;0.50;0.40;;;10.60;99.90;;;;;;5095606;28;20295;-78
2022/02/18 11:41:52;;;;;;;0.50;0.40;;;10.60;99.90;;;;;;5095659;28;20205;-80
2022/02/18 11:44:29;;;;;;;0.80;0.70;;;10.70;99.90;;;;;;5095251;28;20627;-80
2022/02/18 11:47:12;;;;;;;1.17;0.50;;;10.70;99.90;;;;;;5094721;28;20706;-81
2022/02/18 11:49:39;;;;;;;1.95;0.70;;;10.80;99.90;;;;;;5094498;28;20288;-80
2022/02/18 11:52:10;;;;;;;0.50;0.38;;;10.80;99.90;;;;;;5095297;28;20275;-79
2022/02/18 11:54:37;;;;;;;0.50;0.40;;;10.90;99.90;;;;;;5094578;28;20228;-78
2022/02/18 11:57:05;;;;;;;0.50;0.40;;;11.00;99.90;;;;;;5094734;28;21008;-79
2022/02/18 11:59:56;;;;;;;0.50;0.50;;;11.00;99.90;;;;;;5094800;28;20224;-77
2022/02/18 12:02:36;;;;;;;0.50;0.40;;;11.20;99.90;;;;;;5094801;28;20287;-79
2022/02/18 12:05:09;;;;;;;0.50;0.30;;;11.30;99.90;;;;;;5095404;28;20193;-79
2022/02/18 12:07:40;;;;;;;0.98;0.77;;;11.40;99.90;;;;;;5094344;28;20209;-79
2022/02/18 12:10:15;;;;;;;2.22;1.58;;;11.50;99.90;;;;;;5094353;28;20200;-79
2022/02/18 12:12:42;;;;;;;0.50;0.40;;;11.60;99.90;;;;;;5095275;28;20185;-79
2022/02/18 12:15:20;;;;;;;0.50;0.37;;;11.70;99.90;;;;;;5095075;28;20442;-78
2022/02/18 12:17:51;;;;;;;0.60;0.50;;;11.70;99.90;;;;;;5094156;28;20491;-79
2022/02/18 12:20:24;;;;;;;0.60;0.40;;;11.80;99.90;;;;;;5093988;28;20174;-78
2022/02/18 12:22:51;;;;;;;0.50;0.30;;;11.90;99.90;;;;;;5093519;28;20451;-78
2022/02/18 12:25:23;;;;;;;0.50;0.43;;;11.90;99.90;;;;;;5093640;28;20535;-77
2022/02/18 12:27:51;;;;;;;0.73;0.47;;;12.00;99.90;;;;;;5093720;28;20516;-78
2022/02/18 12:30:40;;;;;;;0.50;0.50;;;12.10;99.90;;;;;;5092221;28;20231;-76
2022/02/18 12:33:09;;;;;;;0.50;0.33;;;12.10;99.90;;;;;;5093973;28;20277;-78
2022/02/18 12:35:36;;;;;;;0.50;0.40;;;12.10;99.90;;;;;;5092993;28;20966;-79
2022/02/18 12:38:05;;;;;;;1.27;1.17;;;12.20;99.90;;;;;;5093248;28;20840;-74
2022/02/18 12:40:34;;;;;;;1.70;0.50;;;12.20;99.90;;;;;;5093464;28;20442;-77
2022/02/18 12:43:03;;;;;;;0.50;0.40;;;12.20;99.90;;;;;;5093157;28;20535;-78
2022/02/18 12:45:53;;;;;;;0.50;0.40;;;12.20;99.90;;;;;;5092803;28;20917;-80
2022/02/18 12:48:31;;;;;;;0.50;0.50;;;12.20;99.90;;;;;;5091275;28;20224;-79
2022/02/18 12:51:00;;;;;;;1.63;0.57;;;12.20;99.90;;;;;;5093205;28;20473;-77
2022/02/18 12:53:27;;;;;;;0.50;0.40;;;12.30;99.90;;;;;;5095136;28;20467;-78
2022/02/18 12:55:53;;;;;;;0.60;0.50;;;12.30;99.90;;;;;;5092393;28;20948;-78
2022/02/18 12:58:21;;;;;;;1.83;1.57;;;12.30;99.90;;;;;;5093876;28;20509;-79
2022/02/18 13:00:49;;;;;;;0.50;0.40;;;12.30;99.90;;;;;;5093867;28;20447;-78